sensor_id;sensor_type;location;lat;lon;timestamp;P1;durP1;ratioP1;P2;durP2;ratioP2
4011;SDS011;2020;48.682;9.024;2022-11-15T00:01:05;2.47;;;2.37;;
4011;SDS011;2020;48.682;9.024;2022-11-15T00:03:31;2.67;;;2.43;;
4011;SDS011;2020;48.682;9.024;2022-11-15T00:06:00;2.50;;;2.40;;
4011;SDS011;2020;48.682;9.024;2022-11-15T00:08:28;3.10;;;2.90;;
4011;SDS011;2020;48.682;9.024;2022-11-15T00:10:56;2.60;;;2.47;;
4011;SDS011;2020;48.682;9.024;2022-11-15T00:13:22;3.17;;;2.83;;
4011;SDS011;2020;48.682;9.024;2022-11-15T00:15:48;2.77;;;2.67;;
4011;SDS011;2020;48.682;9.024;2022-11-15T00:18:13;3.00;;;2.70;;
4011;SDS011;2020;48.682;9.024;2022-11-15T00:20:39;2.83;;;2.63;;
4011;SDS011;2020;48.682;9.024;2022-11-15T00:23:05;2.37;;;2.27;;
4011;SDS011;2020;48.682;9.024;2022-11-15T00:25:31;6.57;;;2.60;;
4011;SDS011;2020;48.682;9.024;2022-11-15T00:27:57;2.83;;;2.73;;
4011;SDS011;2020;48.682;9.024;2022-11-15T00:30:24;4.50;;;2.50;;
4011;SDS011;2020;48.682;9.024;2022-11-15T00:32:50;2.50;;;2.40;;
4011;SDS011;2020;48.682;9.024;2022-11-15T00:35:15;4.80;;;3.00;;
4011;SDS011;2020;48.682;9.024;2022-11-15T00:37:40;2.53;;;2.40;;
4011;SDS011;2020;48.682;9.024;2022-11-15T00:40:06;3.23;;;2.57;;
4011;SDS011;2020;48.682;9.024;2022-11-15T00:42:32;2.63;;;2.50;;
4011;SDS011;2020;48.682;9.024;2022-11-15T00:44:57;2.60;;;2.40;;
4011;SDS011;2020;48.682;9.024;2022-11-15T00:47:23;2.30;;;2.20;;
4011;SDS011;2020;48.682;9.024;2022-11-15T00:49:48;1.90;;;1.77;;
4011;SDS011;2020;48.682;9.024;2022-11-15T00:52:13;2.30;;;2.20;;
4011;SDS011;2020;48.682;9.024;2022-11-15T00:54:38;2.10;;;2.00;;
4011;SDS011;2020;48.682;9.024;2022-11-15T00:57:03;3.67;;;2.10;;
4011;SDS011;2020;48.682;9.024;2022-11-15T00:59:29;2.10;;;1.90;;
4011;SDS011;2020;48.682;9.024;2022-11-15T01:01:55;2.30;;;2.10;;
4011;SDS011;2020;48.682;9.024;2022-11-15T01:04:20;2.50;;;2.33;;
4011;SDS011;2020;48.682;9.024;2022-11-15T01:06:45;3.07;;;2.43;;
4011;SDS011;2020;48.682;9.024;2022-11-15T01:09:11;4.17;;;2.40;;
4011;SDS011;2020;48.682;9.024;2022-11-15T01:11:36;2.30;;;2.20;;
4011;SDS011;2020;48.682;9.024;2022-11-15T01:14:01;2.23;;;2.13;;
4011;SDS011;2020;48.682;9.024;2022-11-15T01:16:26;2.17;;;1.93;;
4011;SDS011;2020;48.682;9.024;2022-11-15T01:18:52;2.00;;;1.90;;
4011;SDS011;2020;48.682;9.024;2022-11-15T01:21:17;2.20;;;2.00;;
4011;SDS011;2020;48.682;9.024;2022-11-15T01:23:44;4.10;;;2.40;;
4011;SDS011;2020;48.682;9.024;2022-11-15T01:26:11;2.47;;;2.37;;
4011;SDS011;2020;48.682;9.024;2022-11-15T01:28:39;4.47;;;2.97;;
4011;SDS011;2020;48.682;9.024;2022-11-15T01:31:12;2.37;;;2.23;;
4011;SDS011;2020;48.682;9.024;2022-11-15T01:33:40;2.10;;;2.00;;
4011;SDS011;2020;48.682;9.024;2022-11-15T01:36:06;2.97;;;2.70;;
4011;SDS011;2020;48.682;9.024;2022-11-15T01:38:33;2.63;;;2.53;;
4011;SDS011;2020;48.682;9.024;2022-11-15T01:40:59;3.43;;;3.13;;
4011;SDS011;2020;48.682;9.024;2022-11-15T01:45:57;2.47;;;2.23;;
4011;SDS011;2020;48.682;9.024;2022-11-15T01:48:25;3.10;;;2.90;;
4011;SDS011;2020;48.682;9.024;2022-11-15T01:50:56;2.57;;;2.47;;
4011;SDS011;2020;48.682;9.024;2022-11-15T01:53:22;3.63;;;2.93;;
4011;SDS011;2020;48.682;9.024;2022-11-15T01:55:50;2.83;;;2.73;;
4011;SDS011;2020;48.682;9.024;2022-11-15T01:58:16;2.77;;;2.70;;
4011;SDS011;2020;48.682;9.024;2022-11-15T02:00:41;2.27;;;2.17;;
4011;SDS011;2020;48.682;9.024;2022-11-15T02:03:07;2.60;;;2.50;;
4011;SDS011;2020;48.682;9.024;2022-11-15T02:05:32;2.70;;;2.50;;
4011;SDS011;2020;48.682;9.024;2022-11-15T02:08:00;2.37;;;2.27;;
4011;SDS011;2020;48.682;9.024;2022-11-15T02:10:27;2.03;;;2.03;;
4011;SDS011;2020;48.682;9.024;2022-11-15T02:12:52;2.23;;;2.00;;
4011;SDS011;2020;48.682;9.024;2022-11-15T02:15:20;3.40;;;2.13;;
4011;SDS011;2020;48.682;9.024;2022-11-15T02:26:47;3.47;;;2.80;;
4011;SDS011;2020;48.682;9.024;2022-11-15T02:32:12;2.77;;;2.47;;
4011;SDS011;2020;48.682;9.024;2022-11-15T02:35:02;2.70;;;2.47;;
4011;SDS011;2020;48.682;9.024;2022-11-15T02:40:28;3.10;;;2.90;;
4011;SDS011;2020;48.682;9.024;2022-11-15T02:43:07;2.33;;;2.10;;
4011;SDS011;2020;48.682;9.024;2022-11-15T02:46:14;3.40;;;3.20;;
4011;SDS011;2020;48.682;9.024;2022-11-15T02:48:42;2.10;;;2.10;;
4011;SDS011;2020;48.682;9.024;2022-11-15T02:51:08;3.03;;;2.93;;
4011;SDS011;2020;48.682;9.024;2022-11-15T02:53:34;2.63;;;2.43;;
4011;SDS011;2020;48.682;9.024;2022-11-15T02:56:00;2.00;;;1.90;;
4011;SDS011;2020;48.682;9.024;2022-11-15T03:09:30;2.47;;;2.37;;
4011;SDS011;2020;48.682;9.024;2022-11-15T03:12:13;2.40;;;1.90;;
4011;SDS011;2020;48.682;9.024;2022-11-15T03:14:59;2.00;;;1.90;;
4011;SDS011;2020;48.682;9.024;2022-11-15T03:17:30;1.70;;;1.67;;
4011;SDS011;2020;48.682;9.024;2022-11-15T03:20:04;2.03;;;1.93;;
4011;SDS011;2020;48.682;9.024;2022-11-15T03:25:54;2.40;;;2.30;;
4011;SDS011;2020;48.682;9.024;2022-11-15T03:28:25;2.13;;;2.00;;
4011;SDS011;2020;48.682;9.024;2022-11-15T03:30:58;2.70;;;2.50;;
4011;SDS011;2020;48.682;9.024;2022-11-15T03:33:47;2.40;;;2.20;;
4011;SDS011;2020;48.682;9.024;2022-11-15T03:36:13;1.80;;;1.70;;
4011;SDS011;2020;48.682;9.024;2022-11-15T03:38:42;2.63;;;2.40;;
4011;SDS011;2020;48.682;9.024;2022-11-15T03:41:15;1.40;;;1.40;;
4011;SDS011;2020;48.682;9.024;2022-11-15T03:43:49;2.97;;;2.10;;
4011;SDS011;2020;48.682;9.024;2022-11-15T03:47:17;2.50;;;2.40;;
4011;SDS011;2020;48.682;9.024;2022-11-15T03:49:33;1.70;;;1.60;;
4011;SDS011;2020;48.682;9.024;2022-11-15T03:52:01;1.90;;;1.77;;
4011;SDS011;2020;48.682;9.024;2022-11-15T03:54:28;1.87;;;1.70;;
4011;SDS011;2020;48.682;9.024;2022-11-15T03:56:53;2.37;;;2.20;;
4011;SDS011;2020;48.682;9.024;2022-11-15T03:59:18;2.20;;;2.10;;
4011;SDS011;2020;48.682;9.024;2022-11-15T04:01:44;2.03;;;1.80;;
4011;SDS011;2020;48.682;9.024;2022-11-15T04:04:10;2.43;;;2.10;;
4011;SDS011;2020;48.682;9.024;2022-11-15T04:06:35;2.43;;;2.33;;
4011;SDS011;2020;48.682;9.024;2022-11-15T04:09:00;2.07;;;1.97;;
4011;SDS011;2020;48.682;9.024;2022-11-15T04:11:26;1.97;;;1.87;;
4011;SDS011;2020;48.682;9.024;2022-11-15T04:13:51;2.87;;;2.77;;
4011;SDS011;2020;48.682;9.024;2022-11-15T04:16:16;1.90;;;1.77;;
4011;SDS011;2020;48.682;9.024;2022-11-15T04:18:41;2.30;;;2.10;;
4011;SDS011;2020;48.682;9.024;2022-11-15T04:21:07;2.80;;;2.60;;
4011;SDS011;2020;48.682;9.024;2022-11-15T04:23:51;2.00;;;1.90;;
4011;SDS011;2020;48.682;9.024;2022-11-15T04:26:32;4.03;;;2.20;;
4011;SDS011;2020;48.682;9.024;2022-11-15T04:28:58;2.40;;;2.20;;
4011;SDS011;2020;48.682;9.024;2022-11-15T04:31:41;2.03;;;1.93;;
4011;SDS011;2020;48.682;9.024;2022-11-15T04:34:07;2.40;;;2.30;;
4011;SDS011;2020;48.682;9.024;2022-11-15T04:36:32;2.40;;;2.20;;
4011;SDS011;2020;48.682;9.024;2022-11-15T04:39:16;2.20;;;2.10;;
4011;SDS011;2020;48.682;9.024;2022-11-15T04:41:42;2.13;;;2.03;;
4011;SDS011;2020;48.682;9.024;2022-11-15T04:44:07;2.13;;;2.03;;
4011;SDS011;2020;48.682;9.024;2022-11-15T04:46:32;3.33;;;2.20;;
4011;SDS011;2020;48.682;9.024;2022-11-15T04:48:57;2.70;;;2.60;;
4011;SDS011;2020;48.682;9.024;2022-11-15T04:51:23;2.63;;;2.50;;
4011;SDS011;2020;48.682;9.024;2022-11-15T04:53:48;2.10;;;2.00;;
4011;SDS011;2020;48.682;9.024;2022-11-15T04:56:13;1.87;;;1.77;;
4011;SDS011;2020;48.682;9.024;2022-11-15T04:58:39;4.00;;;2.77;;
4011;SDS011;2020;48.682;9.024;2022-11-15T05:01:07;2.30;;;2.20;;
4011;SDS011;2020;48.682;9.024;2022-11-15T05:03:34;2.17;;;2.07;;
4011;SDS011;2020;48.682;9.024;2022-11-15T05:06:17;2.40;;;2.10;;
4011;SDS011;2020;48.682;9.024;2022-11-15T05:08:43;2.30;;;2.20;;
4011;SDS011;2020;48.682;9.024;2022-11-15T05:11:08;1.60;;;1.50;;
4011;SDS011;2020;48.682;9.024;2022-11-15T05:13:36;1.93;;;1.93;;
4011;SDS011;2020;48.682;9.024;2022-11-15T05:16:02;2.10;;;2.00;;
4011;SDS011;2020;48.682;9.024;2022-11-15T05:18:27;2.33;;;2.23;;
4011;SDS011;2020;48.682;9.024;2022-11-15T05:20:52;2.73;;;2.63;;
4011;SDS011;2020;48.682;9.024;2022-11-15T05:23:18;3.27;;;2.97;;
4011;SDS011;2020;48.682;9.024;2022-11-15T05:25:43;3.00;;;2.77;;
4011;SDS011;2020;48.682;9.024;2022-11-15T05:28:08;2.00;;;2.00;;
4011;SDS011;2020;48.682;9.024;2022-11-15T05:30:33;2.43;;;2.23;;
4011;SDS011;2020;48.682;9.024;2022-11-15T05:32:59;2.33;;;2.10;;
4011;SDS011;2020;48.682;9.024;2022-11-15T05:35:30;2.60;;;2.50;;
4011;SDS011;2020;48.682;9.024;2022-11-15T05:38:00;2.30;;;2.20;;
4011;SDS011;2020;48.682;9.024;2022-11-15T05:40:26;2.63;;;2.53;;
4011;SDS011;2020;48.682;9.024;2022-11-15T05:42:52;2.03;;;1.93;;
4011;SDS011;2020;48.682;9.024;2022-11-15T05:45:18;2.00;;;2.00;;
4011;SDS011;2020;48.682;9.024;2022-11-15T05:47:43;2.53;;;1.97;;
4011;SDS011;2020;48.682;9.024;2022-11-15T05:50:11;2.23;;;2.13;;
4011;SDS011;2020;48.682;9.024;2022-11-15T05:52:40;3.77;;;2.67;;
4011;SDS011;2020;48.682;9.024;2022-11-15T05:55:05;2.87;;;2.77;;
4011;SDS011;2020;48.682;9.024;2022-11-15T05:57:32;2.23;;;2.13;;
4011;SDS011;2020;48.682;9.024;2022-11-15T05:59:57;2.50;;;2.40;;
4011;SDS011;2020;48.682;9.024;2022-11-15T06:02:23;2.13;;;2.00;;
4011;SDS011;2020;48.682;9.024;2022-11-15T06:04:48;2.13;;;2.03;;
4011;SDS011;2020;48.682;9.024;2022-11-15T06:07:13;2.70;;;2.50;;
4011;SDS011;2020;48.682;9.024;2022-11-15T06:09:38;2.23;;;2.13;;
4011;SDS011;2020;48.682;9.024;2022-11-15T06:12:04;2.17;;;2.10;;
4011;SDS011;2020;48.682;9.024;2022-11-15T06:14:29;2.70;;;2.50;;
4011;SDS011;2020;48.682;9.024;2022-11-15T06:16:55;1.90;;;1.80;;
4011;SDS011;2020;48.682;9.024;2022-11-15T06:19:20;2.00;;;1.90;;
4011;SDS011;2020;48.682;9.024;2022-11-15T06:21:46;2.07;;;1.90;;
4011;SDS011;2020;48.682;9.024;2022-11-15T06:24:11;2.17;;;2.07;;
4011;SDS011;2020;48.682;9.024;2022-11-15T06:26:36;2.40;;;2.20;;
4011;SDS011;2020;48.682;9.024;2022-11-15T06:29:02;2.07;;;1.97;;
4011;SDS011;2020;48.682;9.024;2022-11-15T06:31:29;2.43;;;2.33;;
4011;SDS011;2020;48.682;9.024;2022-11-15T06:33:54;2.40;;;2.30;;
4011;SDS011;2020;48.682;9.024;2022-11-15T06:36:20;2.27;;;2.20;;
4011;SDS011;2020;48.682;9.024;2022-11-15T06:38:45;2.70;;;2.50;;
4011;SDS011;2020;48.682;9.024;2022-11-15T06:41:11;3.00;;;2.90;;
4011;SDS011;2020;48.682;9.024;2022-11-15T06:43:38;2.20;;;2.10;;
4011;SDS011;2020;48.682;9.024;2022-11-15T06:46:04;2.87;;;2.63;;
4011;SDS011;2020;48.682;9.024;2022-11-15T06:48:31;2.47;;;2.27;;
4011;SDS011;2020;48.682;9.024;2022-11-15T06:50:57;4.87;;;4.20;;
4011;SDS011;2020;48.682;9.024;2022-11-15T06:53:24;3.90;;;2.60;;
4011;SDS011;2020;48.682;9.024;2022-11-15T06:55:50;2.77;;;2.57;;
4011;SDS011;2020;48.682;9.024;2022-11-15T06:58:15;2.80;;;2.60;;
4011;SDS011;2020;48.682;9.024;2022-11-15T07:00:41;4.30;;;3.10;;
4011;SDS011;2020;48.682;9.024;2022-11-15T07:03:07;2.90;;;2.70;;
4011;SDS011;2020;48.682;9.024;2022-11-15T07:05:33;2.53;;;2.27;;
4011;SDS011;2020;48.682;9.024;2022-11-15T07:07:58;8.57;;;2.20;;
4011;SDS011;2020;48.682;9.024;2022-11-15T07:10:24;2.83;;;2.50;;
4011;SDS011;2020;48.682;9.024;2022-11-15T07:12:54;2.60;;;2.50;;
4011;SDS011;2020;48.682;9.024;2022-11-15T07:15:21;2.33;;;2.23;;
4011;SDS011;2020;48.682;9.024;2022-11-15T07:17:50;2.57;;;2.47;;
4011;SDS011;2020;48.682;9.024;2022-11-15T07:20:16;2.57;;;2.47;;
4011;SDS011;2020;48.682;9.024;2022-11-15T07:22:42;3.03;;;2.93;;
4011;SDS011;2020;48.682;9.024;2022-11-15T07:25:10;4.17;;;2.87;;
4011;SDS011;2020;48.682;9.024;2022-11-15T07:27:35;11.87;;;5.20;;
4011;SDS011;2020;48.682;9.024;2022-11-15T07:30:01;3.20;;;3.00;;
4011;SDS011;2020;48.682;9.024;2022-11-15T07:32:26;2.83;;;2.67;;
4011;SDS011;2020;48.682;9.024;2022-11-15T07:34:52;4.60;;;2.77;;
4011;SDS011;2020;48.682;9.024;2022-11-15T07:37:17;3.30;;;3.10;;
4011;SDS011;2020;48.682;9.024;2022-11-15T07:39:43;2.97;;;2.87;;
4011;SDS011;2020;48.682;9.024;2022-11-15T07:42:08;3.13;;;2.83;;
4011;SDS011;2020;48.682;9.024;2022-11-15T07:44:52;4.73;;;2.77;;
4011;SDS011;2020;48.682;9.024;2022-11-15T07:47:17;2.07;;;1.97;;
4011;SDS011;2020;48.682;9.024;2022-11-15T07:49:42;3.00;;;2.90;;
4011;SDS011;2020;48.682;9.024;2022-11-15T07:52:08;2.37;;;2.23;;
4011;SDS011;2020;48.682;9.024;2022-11-15T07:54:33;2.33;;;2.00;;
4011;SDS011;2020;48.682;9.024;2022-11-15T07:56:58;2.27;;;2.13;;
4011;SDS011;2020;48.682;9.024;2022-11-15T07:59:24;2.10;;;2.00;;
4011;SDS011;2020;48.682;9.024;2022-11-15T08:01:49;1.80;;;1.70;;
4011;SDS011;2020;48.682;9.024;2022-11-15T08:04:14;2.50;;;1.70;;
4011;SDS011;2020;48.682;9.024;2022-11-15T08:06:39;1.60;;;1.60;;
4011;SDS011;2020;48.682;9.024;2022-11-15T08:09:05;2.00;;;1.90;;
4011;SDS011;2020;48.682;9.024;2022-11-15T08:11:30;2.50;;;2.30;;
4011;SDS011;2020;48.682;9.024;2022-11-15T08:13:55;1.93;;;1.93;;
4011;SDS011;2020;48.682;9.024;2022-11-15T08:16:21;1.50;;;1.50;;
4011;SDS011;2020;48.682;9.024;2022-11-15T08:18:46;2.20;;;1.80;;
4011;SDS011;2020;48.682;9.024;2022-11-15T08:21:12;2.00;;;1.90;;
4011;SDS011;2020;48.682;9.024;2022-11-15T08:23:42;1.60;;;1.60;;
4011;SDS011;2020;48.682;9.024;2022-11-15T08:26:08;1.90;;;1.80;;
4011;SDS011;2020;48.682;9.024;2022-11-15T08:28:34;2.10;;;2.00;;
4011;SDS011;2020;48.682;9.024;2022-11-15T08:30:59;2.30;;;2.20;;
4011;SDS011;2020;48.682;9.024;2022-11-15T08:33:24;2.00;;;2.00;;
4011;SDS011;2020;48.682;9.024;2022-11-15T08:35:50;2.07;;;1.97;;
4011;SDS011;2020;48.682;9.024;2022-11-15T08:38:15;2.30;;;2.10;;
4011;SDS011;2020;48.682;9.024;2022-11-15T08:40:41;1.93;;;1.83;;
4011;SDS011;2020;48.682;9.024;2022-11-15T08:43:06;2.70;;;1.63;;
4011;SDS011;2020;48.682;9.024;2022-11-15T08:45:33;1.33;;;1.33;;
4011;SDS011;2020;48.682;9.024;2022-11-15T08:48:00;1.60;;;1.50;;
4011;SDS011;2020;48.682;9.024;2022-11-15T08:50:27;2.07;;;2.07;;
4011;SDS011;2020;48.682;9.024;2022-11-15T08:52:52;1.40;;;1.40;;
4011;SDS011;2020;48.682;9.024;2022-11-15T08:55:17;3.10;;;1.97;;
4011;SDS011;2020;48.682;9.024;2022-11-15T08:57:43;1.50;;;1.50;;
4011;SDS011;2020;48.682;9.024;2022-11-15T09:00:08;1.47;;;1.43;;
4011;SDS011;2020;48.682;9.024;2022-11-15T09:02:34;1.93;;;1.83;;
4011;SDS011;2020;48.682;9.024;2022-11-15T09:05:02;5.80;;;2.10;;
4011;SDS011;2020;48.682;9.024;2022-11-15T09:07:27;1.80;;;1.70;;
4011;SDS011;2020;48.682;9.024;2022-11-15T09:09:54;1.57;;;1.57;;
4011;SDS011;2020;48.682;9.024;2022-11-15T09:12:20;1.53;;;1.43;;
4011;SDS011;2020;48.682;9.024;2022-11-15T09:14:45;1.67;;;1.67;;
4011;SDS011;2020;48.682;9.024;2022-11-15T09:17:10;2.07;;;1.97;;
4011;SDS011;2020;48.682;9.024;2022-11-15T09:19:35;1.77;;;1.67;;
4011;SDS011;2020;48.682;9.024;2022-11-15T09:22:02;2.23;;;1.97;;
4011;SDS011;2020;48.682;9.024;2022-11-15T09:24:30;2.07;;;2.00;;
4011;SDS011;2020;48.682;9.024;2022-11-15T09:26:56;2.60;;;1.60;;
4011;SDS011;2020;48.682;9.024;2022-11-15T09:29:21;2.13;;;2.03;;
4011;SDS011;2020;48.682;9.024;2022-11-15T09:31:46;2.53;;;2.20;;
4011;SDS011;2020;48.682;9.024;2022-11-15T09:34:12;2.53;;;2.33;;
4011;SDS011;2020;48.682;9.024;2022-11-15T09:36:37;2.00;;;2.00;;
4011;SDS011;2020;48.682;9.024;2022-11-15T09:39:02;2.07;;;1.97;;
4011;SDS011;2020;48.682;9.024;2022-11-15T09:47:29;5.40;;;2.30;;
4011;SDS011;2020;48.682;9.024;2022-11-15T09:49:58;1.90;;;1.80;;
4011;SDS011;2020;48.682;9.024;2022-11-15T09:52:25;2.35;;;2.30;;
4011;SDS011;2020;48.682;9.024;2022-11-15T09:54:51;2.90;;;2.80;;
4011;SDS011;2020;48.682;9.024;2022-11-15T10:00:06;6.87;;;2.30;;
4011;SDS011;2020;48.682;9.024;2022-11-15T10:03:06;3.43;;;2.40;;
4011;SDS011;2020;48.682;9.024;2022-11-15T10:05:57;2.33;;;2.23;;
4011;SDS011;2020;48.682;9.024;2022-11-15T10:11:24;2.87;;;2.43;;
4011;SDS011;2020;48.682;9.024;2022-11-15T10:13:51;2.20;;;2.10;;
4011;SDS011;2020;48.682;9.024;2022-11-15T10:16:30;2.13;;;2.00;;
4011;SDS011;2020;48.682;9.024;2022-11-15T10:19:01;2.20;;;2.00;;
4011;SDS011;2020;48.682;9.024;2022-11-15T10:21:44;2.53;;;2.40;;
4011;SDS011;2020;48.682;9.024;2022-11-15T10:24:20;3.00;;;2.80;;
4011;SDS011;2020;48.682;9.024;2022-11-15T10:26:52;2.40;;;2.30;;
4011;SDS011;2020;48.682;9.024;2022-11-15T10:29:19;2.07;;;1.97;;
4011;SDS011;2020;48.682;9.024;2022-11-15T10:31:45;3.13;;;1.97;;
4011;SDS011;2020;48.682;9.024;2022-11-15T10:36:44;2.00;;;1.90;;
4011;SDS011;2020;48.682;9.024;2022-11-15T10:39:23;2.97;;;2.40;;
4011;SDS011;2020;48.682;9.024;2022-11-15T10:41:49;1.67;;;1.53;;
4011;SDS011;2020;48.682;9.024;2022-11-15T10:46:45;1.90;;;1.40;;
4011;SDS011;2020;48.682;9.024;2022-11-15T10:54:10;1.53;;;1.43;;
4011;SDS011;2020;48.682;9.024;2022-11-15T10:56:38;1.50;;;1.50;;
4011;SDS011;2020;48.682;9.024;2022-11-15T10:59:12;1.70;;;1.60;;
4011;SDS011;2020;48.682;9.024;2022-11-15T11:01:46;1.60;;;1.40;;
4011;SDS011;2020;48.682;9.024;2022-11-15T11:04:12;2.70;;;1.30;;
4011;SDS011;2020;48.682;9.024;2022-11-15T11:09:32;1.30;;;1.20;;
4011;SDS011;2020;48.682;9.024;2022-11-15T11:12:01;1.20;;;1.20;;
4011;SDS011;2020;48.682;9.024;2022-11-15T11:14:35;1.20;;;1.20;;
4011;SDS011;2020;48.682;9.024;2022-11-15T11:20:20;1.20;;;1.20;;
4011;SDS011;2020;48.682;9.024;2022-11-15T11:25:30;1.70;;;1.60;;
4011;SDS011;2020;48.682;9.024;2022-11-15T11:33:31;2.63;;;1.27;;
4011;SDS011;2020;48.682;9.024;2022-11-15T11:38:57;1.43;;;1.33;;
4011;SDS011;2020;48.682;9.024;2022-11-15T11:44:01;1.40;;;1.30;;
4011;SDS011;2020;48.682;9.024;2022-11-15T11:46:48;1.40;;;1.30;;
4011;SDS011;2020;48.682;9.024;2022-11-15T11:52:33;1.13;;;1.13;;
4011;SDS011;2020;48.682;9.024;2022-11-15T11:55:12;1.20;;;1.20;;
4011;SDS011;2020;48.682;9.024;2022-11-15T12:03:07;1.33;;;1.23;;
4011;SDS011;2020;48.682;9.024;2022-11-15T12:05:44;1.37;;;1.27;;
4011;SDS011;2020;48.682;9.024;2022-11-15T12:09:17;2.03;;;1.93;;
4011;SDS011;2020;48.682;9.024;2022-11-15T12:11:37;1.17;;;1.17;;
4011;SDS011;2020;48.682;9.024;2022-11-15T12:14:10;1.07;;;1.07;;
4011;SDS011;2020;48.682;9.024;2022-11-15T12:16:41;1.30;;;1.30;;
4011;SDS011;2020;48.682;9.024;2022-11-15T12:19:07;2.80;;;1.50;;
4011;SDS011;2020;48.682;9.024;2022-11-15T12:21:45;3.53;;;1.27;;
4011;SDS011;2020;48.682;9.024;2022-11-15T12:24:19;2.93;;;1.27;;
4011;SDS011;2020;48.682;9.024;2022-11-15T12:26:51;1.03;;;1.03;;
4011;SDS011;2020;48.682;9.024;2022-11-15T12:29:37;3.00;;;1.73;;
4011;SDS011;2020;48.682;9.024;2022-11-15T12:32:11;1.33;;;1.33;;
4011;SDS011;2020;48.682;9.024;2022-11-15T12:34:45;1.37;;;1.27;;
4011;SDS011;2020;48.682;9.024;2022-11-15T12:40:20;0.97;;;0.97;;
4011;SDS011;2020;48.682;9.024;2022-11-15T12:45:53;1.50;;;1.40;;
4011;SDS011;2020;48.682;9.024;2022-11-15T12:50:56;1.70;;;1.60;;
4011;SDS011;2020;48.682;9.024;2022-11-15T12:58:42;1.33;;;1.33;;
4011;SDS011;2020;48.682;9.024;2022-11-15T13:01:08;1.37;;;1.30;;
4011;SDS011;2020;48.682;9.024;2022-11-15T13:03:35;1.43;;;1.43;;
4011;SDS011;2020;48.682;9.024;2022-11-15T13:06:02;1.40;;;1.40;;
4011;SDS011;2020;48.682;9.024;2022-11-15T13:09:02;2.70;;;1.37;;
4011;SDS011;2020;48.682;9.024;2022-11-15T13:19:48;1.33;;;1.33;;
4011;SDS011;2020;48.682;9.024;2022-11-15T13:22:18;1.20;;;1.20;;
4011;SDS011;2020;48.682;9.024;2022-11-15T13:25:18;1.47;;;1.43;;
4011;SDS011;2020;48.682;9.024;2022-11-15T13:27:45;2.30;;;2.20;;
4011;SDS011;2020;48.682;9.024;2022-11-15T13:30:19;3.33;;;1.73;;
4011;SDS011;2020;48.682;9.024;2022-11-15T13:32:47;2.10;;;1.73;;
4011;SDS011;2020;48.682;9.024;2022-11-15T13:35:48;1.90;;;1.27;;
4011;SDS011;2020;48.682;9.024;2022-11-15T13:38:05;2.77;;;1.47;;
4011;SDS011;2020;48.682;9.024;2022-11-15T13:40:35;1.60;;;1.60;;
4011;SDS011;2020;48.682;9.024;2022-11-15T13:43:17;1.43;;;1.43;;
4011;SDS011;2020;48.682;9.024;2022-11-15T13:46:05;1.90;;;1.70;;
4011;SDS011;2020;48.682;9.024;2022-11-15T13:48:53;1.53;;;1.43;;
4011;SDS011;2020;48.682;9.024;2022-11-15T13:51:26;1.73;;;1.63;;
4011;SDS011;2020;48.682;9.024;2022-11-15T13:57:08;3.17;;;1.47;;
4011;SDS011;2020;48.682;9.024;2022-11-15T13:59:52;1.23;;;1.00;;
4011;SDS011;2020;48.682;9.024;2022-11-15T14:02:27;2.23;;;1.77;;
4011;SDS011;2020;48.682;9.024;2022-11-15T14:10:32;2.83;;;1.73;;
4011;SDS011;2020;48.682;9.024;2022-11-15T14:13:01;3.23;;;2.50;;
4011;SDS011;2020;48.682;9.024;2022-11-15T14:15:34;6.93;;;2.20;;
4011;SDS011;2020;48.682;9.024;2022-11-15T14:18:01;1.80;;;1.80;;
4011;SDS011;2020;48.682;9.024;2022-11-15T14:20:29;2.27;;;2.13;;
4011;SDS011;2020;48.682;9.024;2022-11-15T14:23:02;2.40;;;2.30;;
4011;SDS011;2020;48.682;9.024;2022-11-15T14:25:35;3.30;;;2.60;;
4011;SDS011;2020;48.682;9.024;2022-11-15T14:28:11;2.20;;;2.10;;
4011;SDS011;2020;48.682;9.024;2022-11-15T14:30:38;4.13;;;2.13;;
4011;SDS011;2020;48.682;9.024;2022-11-15T14:33:18;2.77;;;2.67;;
4011;SDS011;2020;48.682;9.024;2022-11-15T14:35:44;2.10;;;2.10;;
4011;SDS011;2020;48.682;9.024;2022-11-15T14:38:09;2.17;;;2.07;;
4011;SDS011;2020;48.682;9.024;2022-11-15T14:40:34;1.93;;;1.83;;
4011;SDS011;2020;48.682;9.024;2022-11-15T14:43:00;2.40;;;2.30;;
4011;SDS011;2020;48.682;9.024;2022-11-15T14:45:26;3.00;;;2.90;;
4011;SDS011;2020;48.682;9.024;2022-11-15T14:47:52;2.03;;;1.93;;
4011;SDS011;2020;48.682;9.024;2022-11-15T14:50:19;2.30;;;1.90;;
4011;SDS011;2020;48.682;9.024;2022-11-15T14:52:46;1.67;;;1.67;;
4011;SDS011;2020;48.682;9.024;2022-11-15T14:55:14;2.43;;;2.33;;
4011;SDS011;2020;48.682;9.024;2022-11-15T14:57:45;2.90;;;2.70;;
4011;SDS011;2020;48.682;9.024;2022-11-15T15:00:11;2.90;;;2.80;;
4011;SDS011;2020;48.682;9.024;2022-11-15T15:02:36;2.30;;;2.20;;
4011;SDS011;2020;48.682;9.024;2022-11-15T15:05:10;2.83;;;2.63;;
4011;SDS011;2020;48.682;9.024;2022-11-15T15:07:39;2.50;;;2.40;;
4011;SDS011;2020;48.682;9.024;2022-11-15T15:10:04;2.70;;;2.60;;
4011;SDS011;2020;48.682;9.024;2022-11-15T15:12:29;3.47;;;2.10;;
4011;SDS011;2020;48.682;9.024;2022-11-15T15:14:55;2.03;;;1.93;;
4011;SDS011;2020;48.682;9.024;2022-11-15T15:17:20;3.33;;;2.97;;
4011;SDS011;2020;48.682;9.024;2022-11-15T15:19:46;2.40;;;2.30;;
4011;SDS011;2020;48.682;9.024;2022-11-15T15:22:15;2.17;;;1.97;;
4011;SDS011;2020;48.682;9.024;2022-11-15T15:24:42;2.17;;;2.07;;
4011;SDS011;2020;48.682;9.024;2022-11-15T15:27:08;2.20;;;2.10;;
4011;SDS011;2020;48.682;9.024;2022-11-15T15:29:34;2.43;;;2.27;;
4011;SDS011;2020;48.682;9.024;2022-11-15T15:31:59;3.13;;;2.83;;
4011;SDS011;2020;48.682;9.024;2022-11-15T15:34:25;2.97;;;2.63;;
4011;SDS011;2020;48.682;9.024;2022-11-15T15:37:05;2.70;;;2.50;;
4011;SDS011;2020;48.682;9.024;2022-11-15T15:39:47;2.73;;;2.63;;
4011;SDS011;2020;48.682;9.024;2022-11-15T15:42:13;2.87;;;2.67;;
4011;SDS011;2020;48.682;9.024;2022-11-15T15:44:39;2.60;;;2.47;;
4011;SDS011;2020;48.682;9.024;2022-11-15T15:47:09;2.70;;;2.50;;
4011;SDS011;2020;48.682;9.024;2022-11-15T15:49:37;3.83;;;3.07;;
4011;SDS011;2020;48.682;9.024;2022-11-15T15:52:02;2.53;;;2.43;;
4011;SDS011;2020;48.682;9.024;2022-11-15T15:54:27;2.70;;;2.60;;
4011;SDS011;2020;48.682;9.024;2022-11-15T15:56:53;3.27;;;3.07;;
4011;SDS011;2020;48.682;9.024;2022-11-15T15:59:18;3.67;;;3.37;;
4011;SDS011;2020;48.682;9.024;2022-11-15T16:01:43;2.63;;;2.53;;
4011;SDS011;2020;48.682;9.024;2022-11-15T16:04:09;4.93;;;2.73;;
4011;SDS011;2020;48.682;9.024;2022-11-15T16:09:04;3.17;;;2.97;;
4011;SDS011;2020;48.682;9.024;2022-11-15T16:11:30;4.20;;;3.03;;
4011;SDS011;2020;48.682;9.024;2022-11-15T16:13:55;3.20;;;3.00;;
4011;SDS011;2020;48.682;9.024;2022-11-15T16:16:20;3.23;;;3.13;;
4011;SDS011;2020;48.682;9.024;2022-11-15T16:18:46;3.83;;;3.60;;
4011;SDS011;2020;48.682;9.024;2022-11-15T16:21:12;4.43;;;3.90;;
4011;SDS011;2020;48.682;9.024;2022-11-15T16:23:37;3.30;;;3.20;;
4011;SDS011;2020;48.682;9.024;2022-11-15T16:26:04;2.63;;;2.53;;
4011;SDS011;2020;48.682;9.024;2022-11-15T16:28:42;4.13;;;2.70;;
4011;SDS011;2020;48.682;9.024;2022-11-15T16:31:11;7.13;;;2.83;;
4011;SDS011;2020;48.682;9.024;2022-11-15T16:33:37;2.97;;;2.73;;
4011;SDS011;2020;48.682;9.024;2022-11-15T16:36:04;2.87;;;2.77;;
4011;SDS011;2020;48.682;9.024;2022-11-15T16:38:31;3.40;;;2.83;;
4011;SDS011;2020;48.682;9.024;2022-11-15T16:40:56;4.30;;;4.00;;
4011;SDS011;2020;48.682;9.024;2022-11-15T16:43:21;3.33;;;3.23;;
4011;SDS011;2020;48.682;9.024;2022-11-15T16:45:48;3.90;;;3.70;;
4011;SDS011;2020;48.682;9.024;2022-11-15T16:48:31;3.40;;;3.20;;
4011;SDS011;2020;48.682;9.024;2022-11-15T16:50:58;2.80;;;2.63;;
4011;SDS011;2020;48.682;9.024;2022-11-15T16:53:24;3.90;;;2.73;;
4011;SDS011;2020;48.682;9.024;2022-11-15T16:55:50;3.27;;;3.07;;
4011;SDS011;2020;48.682;9.024;2022-11-15T16:58:16;3.40;;;3.13;;
4011;SDS011;2020;48.682;9.024;2022-11-15T17:00:41;3.70;;;3.43;;
4011;SDS011;2020;48.682;9.024;2022-11-15T17:03:06;3.47;;;3.27;;
4011;SDS011;2020;48.682;9.024;2022-11-15T17:05:32;3.87;;;3.50;;
4011;SDS011;2020;48.682;9.024;2022-11-15T17:07:57;3.67;;;3.33;;
4011;SDS011;2020;48.682;9.024;2022-11-15T17:10:23;4.10;;;3.90;;
4011;SDS011;2020;48.682;9.024;2022-11-15T17:12:50;3.80;;;3.50;;
4011;SDS011;2020;48.682;9.024;2022-11-15T17:15:16;4.20;;;3.90;;
4011;SDS011;2020;48.682;9.024;2022-11-15T17:17:42;4.27;;;4.00;;
4011;SDS011;2020;48.682;9.024;2022-11-15T17:20:14;4.00;;;3.63;;